sensor_id;sensor_type;location;lat;lon;timestamp;P1;durP1;ratioP1;P2;durP2;ratioP2
30127;SDS011;16942;53.196;6.592;2022-09-06T00:01:00;6.95;;;4.68;;
30127;SDS011;16942;53.196;6.592;2022-09-06T00:03:31;8.70;;;4.85;;
30127;SDS011;16942;53.196;6.592;2022-09-06T00:05:56;6.38;;;4.85;;
30127;SDS011;16942;53.196;6.592;2022-09-06T00:08:22;6.40;;;4.65;;
30127;SDS011;16942;53.196;6.592;2022-09-06T00:10:55;7.27;;;5.43;;
30127;SDS011;16942;53.196;6.592;2022-09-06T00:13:21;8.80;;;5.15;;
30127;SDS011;16942;53.196;6.592;2022-09-06T00:15:47;8.53;;;5.33;;
30127;SDS011;16942;53.196;6.592;2022-09-06T00:18:13;5.53;;;4.97;;
30127;SDS011;16942;53.196;6.592;2022-09-06T00:20:38;9.57;;;4.85;;
30127;SDS011;16942;53.196;6.592;2022-09-06T00:23:05;5.80;;;4.70;;
30127;SDS011;16942;53.196;6.592;2022-09-06T00:25:31;5.53;;;5.03;;
30127;SDS011;16942;53.196;6.592;2022-09-06T00:27:59;7.70;;;5.20;;
30127;SDS011;16942;53.196;6.592;2022-09-06T00:30:27;7.43;;;4.90;;
30127;SDS011;16942;53.196;6.592;2022-09-06T00:32:54;7.27;;;4.50;;
30127;SDS011;16942;53.196;6.592;2022-09-06T00:35:20;5.50;;;5.00;;
30127;SDS011;16942;53.196;6.592;2022-09-06T00:37:48;8.70;;;5.40;;
30127;SDS011;16942;53.196;6.592;2022-09-06T00:40:14;6.33;;;5.40;;
30127;SDS011;16942;53.196;6.592;2022-09-06T00:42:40;6.10;;;5.33;;
30127;SDS011;16942;53.196;6.592;2022-09-06T00:45:06;7.73;;;5.07;;
30127;SDS011;16942;53.196;6.592;2022-09-06T00:47:34;8.50;;;5.17;;
30127;SDS011;16942;53.196;6.592;2022-09-06T00:50:03;6.27;;;4.70;;
30127;SDS011;16942;53.196;6.592;2022-09-06T00:52:31;5.60;;;4.63;;
30127;SDS011;16942;53.196;6.592;2022-09-06T00:54:57;6.57;;;5.07;;
30127;SDS011;16942;53.196;6.592;2022-09-06T00:57:24;5.43;;;4.93;;
30127;SDS011;16942;53.196;6.592;2022-09-06T00:59:51;7.00;;;5.07;;
30127;SDS011;16942;53.196;6.592;2022-09-06T01:02:18;5.63;;;4.50;;
30127;SDS011;16942;53.196;6.592;2022-09-06T01:04:44;9.27;;;5.50;;
30127;SDS011;16942;53.196;6.592;2022-09-06T01:15:34;6.60;;;5.67;;
30127;SDS011;16942;53.196;6.592;2022-09-06T01:18:25;7.70;;;5.03;;
30127;SDS011;16942;53.196;6.592;2022-09-06T01:30:25;6.17;;;4.80;;
30127;SDS011;16942;53.196;6.592;2022-09-06T01:35:36;6.13;;;4.87;;
30127;SDS011;16942;53.196;6.592;2022-09-06T01:38:12;8.13;;;5.00;;
30127;SDS011;16942;53.196;6.592;2022-09-06T01:40:38;7.53;;;5.57;;
30127;SDS011;16942;53.196;6.592;2022-09-06T01:43:05;11.83;;;5.67;;
30127;SDS011;16942;53.196;6.592;2022-09-06T01:53:45;6.70;;;5.30;;
30127;SDS011;16942;53.196;6.592;2022-09-06T02:02:02;5.80;;;5.20;;
30127;SDS011;16942;53.196;6.592;2022-09-06T02:07:14;6.57;;;5.97;;
30127;SDS011;16942;53.196;6.592;2022-09-06T02:09:45;9.50;;;5.63;;
30127;SDS011;16942;53.196;6.592;2022-09-06T02:12:13;8.80;;;5.37;;
30127;SDS011;16942;53.196;6.592;2022-09-06T02:14:45;6.57;;;5.97;;
30127;SDS011;16942;53.196;6.592;2022-09-06T02:17:34;6.10;;;5.50;;
30127;SDS011;16942;53.196;6.592;2022-09-06T02:20:16;10.30;;;5.53;;
30127;SDS011;16942;53.196;6.592;2022-09-06T02:22:46;8.00;;;5.57;;
30127;SDS011;16942;53.196;6.592;2022-09-06T02:25:19;6.47;;;5.77;;
30127;SDS011;16942;53.196;6.592;2022-09-06T02:27:53;6.43;;;5.67;;
30127;SDS011;16942;53.196;6.592;2022-09-06T02:30:20;6.97;;;5.87;;
30127;SDS011;16942;53.196;6.592;2022-09-06T02:32:47;8.47;;;5.53;;
30127;SDS011;16942;53.196;6.592;2022-09-06T02:35:16;5.63;;;5.13;;
30127;SDS011;16942;53.196;6.592;2022-09-06T02:37:42;9.57;;;6.43;;
30127;SDS011;16942;53.196;6.592;2022-09-06T02:40:09;7.90;;;5.67;;
30127;SDS011;16942;53.196;6.592;2022-09-06T02:42:35;6.77;;;5.60;;
30127;SDS011;16942;53.196;6.592;2022-09-06T02:45:00;5.97;;;5.37;;
30127;SDS011;16942;53.196;6.592;2022-09-06T02:47:26;7.47;;;5.83;;
30127;SDS011;16942;53.196;6.592;2022-09-06T02:49:52;6.93;;;5.67;;
30127;SDS011;16942;53.196;6.592;2022-09-06T02:52:17;6.33;;;5.57;;
30127;SDS011;16942;53.196;6.592;2022-09-06T02:54:43;6.90;;;5.73;;
30127;SDS011;16942;53.196;6.592;2022-09-06T02:57:09;8.60;;;5.73;;
30127;SDS011;16942;53.196;6.592;2022-09-06T02:59:35;13.10;;;6.07;;
30127;SDS011;16942;53.196;6.592;2022-09-06T03:02:00;7.30;;;5.43;;
30127;SDS011;16942;53.196;6.592;2022-09-06T03:04:26;6.77;;;5.93;;
30127;SDS011;16942;53.196;6.592;2022-09-06T03:06:52;6.67;;;5.97;;
30127;SDS011;16942;53.196;6.592;2022-09-06T03:09:17;7.20;;;5.90;;
30127;SDS011;16942;53.196;6.592;2022-09-06T03:11:43;6.17;;;5.50;;
30127;SDS011;16942;53.196;6.592;2022-09-06T03:14:08;6.47;;;5.77;;
30127;SDS011;16942;53.196;6.592;2022-09-06T03:16:34;9.37;;;6.10;;
30127;SDS011;16942;53.196;6.592;2022-09-06T03:19:02;6.77;;;5.77;;
30127;SDS011;16942;53.196;6.592;2022-09-06T03:21:28;7.80;;;6.97;;
30127;SDS011;16942;53.196;6.592;2022-09-06T03:23:53;9.50;;;6.30;;
30127;SDS011;16942;53.196;6.592;2022-09-06T03:26:19;7.27;;;6.57;;
30127;SDS011;16942;53.196;6.592;2022-09-06T03:28:44;7.57;;;6.77;;
30127;SDS011;16942;53.196;6.592;2022-09-06T03:31:10;7.17;;;6.47;;
30127;SDS011;16942;53.196;6.592;2022-09-06T03:33:36;7.87;;;6.47;;
30127;SDS011;16942;53.196;6.592;2022-09-06T03:36:01;8.73;;;6.30;;
30127;SDS011;16942;53.196;6.592;2022-09-06T03:38:28;12.40;;;6.30;;
30127;SDS011;16942;53.196;6.592;2022-09-06T03:40:54;10.13;;;6.17;;
30127;SDS011;16942;53.196;6.592;2022-09-06T03:43:20;12.50;;;7.07;;
30127;SDS011;16942;53.196;6.592;2022-09-06T03:45:48;14.20;;;7.43;;
30127;SDS011;16942;53.196;6.592;2022-09-06T03:48:16;8.73;;;7.83;;
30127;SDS011;16942;53.196;6.592;2022-09-06T03:50:44;8.97;;;7.37;;
30127;SDS011;16942;53.196;6.592;2022-09-06T03:53:10;12.03;;;7.33;;
30127;SDS011;16942;53.196;6.592;2022-09-06T03:55:36;8.53;;;6.60;;
30127;SDS011;16942;53.196;6.592;2022-09-06T03:58:01;8.57;;;6.53;;
30127;SDS011;16942;53.196;6.592;2022-09-06T04:00:27;10.87;;;7.07;;
30127;SDS011;16942;53.196;6.592;2022-09-06T04:02:52;8.63;;;7.30;;
30127;SDS011;16942;53.196;6.592;2022-09-06T04:05:18;11.77;;;8.50;;
30127;SDS011;16942;53.196;6.592;2022-09-06T04:07:43;13.67;;;10.23;;
30127;SDS011;16942;53.196;6.592;2022-09-06T04:10:09;11.53;;;9.57;;
30127;SDS011;16942;53.196;6.592;2022-09-06T04:12:35;9.37;;;8.20;;
30127;SDS011;16942;53.196;6.592;2022-09-06T04:15:00;9.33;;;8.30;;
30127;SDS011;16942;53.196;6.592;2022-09-06T04:17:26;13.03;;;9.70;;
30127;SDS011;16942;53.196;6.592;2022-09-06T04:19:52;12.27;;;8.53;;
30127;SDS011;16942;53.196;6.592;2022-09-06T04:22:17;9.13;;;8.20;;
30127;SDS011;16942;53.196;6.592;2022-09-06T04:24:43;9.77;;;7.53;;
30127;SDS011;16942;53.196;6.592;2022-09-06T04:27:08;9.37;;;7.30;;
30127;SDS011;16942;53.196;6.592;2022-09-06T04:29:34;8.83;;;7.93;;
30127;SDS011;16942;53.196;6.592;2022-09-06T04:31:59;12.80;;;6.93;;
30127;SDS011;16942;53.196;6.592;2022-09-06T04:34:25;9.17;;;7.77;;
30127;SDS011;16942;53.196;6.592;2022-09-06T04:36:51;8.93;;;8.00;;
30127;SDS011;16942;53.196;6.592;2022-09-06T04:39:16;10.23;;;8.00;;
30127;SDS011;16942;53.196;6.592;2022-09-06T04:41:42;11.83;;;8.80;;
30127;SDS011;16942;53.196;6.592;2022-09-06T04:44:08;13.00;;;9.60;;
30127;SDS011;16942;53.196;6.592;2022-09-06T04:46:33;9.57;;;8.20;;
30127;SDS011;16942;53.196;6.592;2022-09-06T04:48:59;12.10;;;8.97;;
30127;SDS011;16942;53.196;6.592;2022-09-06T04:51:25;11.73;;;8.27;;
30127;SDS011;16942;53.196;6.592;2022-09-06T04:53:51;8.47;;;7.30;;
30127;SDS011;16942;53.196;6.592;2022-09-06T04:56:18;9.50;;;8.03;;
30127;SDS011;16942;53.196;6.592;2022-09-06T04:58:45;8.73;;;7.80;;
30127;SDS011;16942;53.196;6.592;2022-09-06T05:01:13;8.97;;;7.80;;
30127;SDS011;16942;53.196;6.592;2022-09-06T05:03:39;9.37;;;7.67;;
30127;SDS011;16942;53.196;6.592;2022-09-06T05:08:35;12.63;;;9.17;;
30127;SDS011;16942;53.196;6.592;2022-09-06T05:11:02;17.57;;;8.93;;
30127;SDS011;16942;53.196;6.592;2022-09-06T05:13:28;10.87;;;8.70;;
30127;SDS011;16942;53.196;6.592;2022-09-06T05:15:54;11.43;;;10.07;;
30127;SDS011;16942;53.196;6.592;2022-09-06T05:18:23;11.27;;;8.43;;
30127;SDS011;16942;53.196;6.592;2022-09-06T05:20:52;11.70;;;9.57;;
30127;SDS011;16942;53.196;6.592;2022-09-06T05:23:19;11.20;;;10.07;;
30127;SDS011;16942;53.196;6.592;2022-09-06T05:25:45;10.03;;;9.00;;
30127;SDS011;16942;53.196;6.592;2022-09-06T05:28:12;12.03;;;10.40;;
30127;SDS011;16942;53.196;6.592;2022-09-06T05:30:39;18.07;;;11.33;;
30127;SDS011;16942;53.196;6.592;2022-09-06T05:33:05;16.63;;;11.87;;
30127;SDS011;16942;53.196;6.592;2022-09-06T05:35:32;14.77;;;11.73;;
30127;SDS011;16942;53.196;6.592;2022-09-06T05:37:58;17.33;;;10.80;;
30127;SDS011;16942;53.196;6.592;2022-09-06T05:40:23;12.23;;;10.03;;
30127;SDS011;16942;53.196;6.592;2022-09-06T05:42:49;17.87;;;11.03;;
30127;SDS011;16942;53.196;6.592;2022-09-06T05:45:14;18.17;;;10.20;;
30127;SDS011;16942;53.196;6.592;2022-09-06T05:47:41;18.13;;;11.00;;
30127;SDS011;16942;53.196;6.592;2022-09-06T05:50:06;14.80;;;10.87;;
30127;SDS011;16942;53.196;6.592;2022-09-06T05:52:32;16.30;;;11.20;;
30127;SDS011;16942;53.196;6.592;2022-09-06T05:54:59;16.27;;;13.13;;
30127;SDS011;16942;53.196;6.592;2022-09-06T05:57:25;17.00;;;12.70;;
30127;SDS011;16942;53.196;6.592;2022-09-06T05:59:51;17.60;;;12.20;;
30127;SDS011;16942;53.196;6.592;2022-09-06T06:02:20;16.50;;;11.83;;
30127;SDS011;16942;53.196;6.592;2022-09-06T06:04:47;17.57;;;10.77;;
30127;SDS011;16942;53.196;6.592;2022-09-06T06:07:12;17.43;;;11.20;;
30127;SDS011;16942;53.196;6.592;2022-09-06T06:09:39;13.07;;;10.77;;
30127;SDS011;16942;53.196;6.592;2022-09-06T06:12:05;14.67;;;10.93;;
30127;SDS011;16942;53.196;6.592;2022-09-06T06:14:31;21.80;;;12.20;;
30127;SDS011;16942;53.196;6.592;2022-09-06T06:16:56;16.93;;;11.70;;
30127;SDS011;16942;53.196;6.592;2022-09-06T06:19:22;14.50;;;12.13;;
30127;SDS011;16942;53.196;6.592;2022-09-06T06:21:48;19.80;;;11.50;;
30127;SDS011;16942;53.196;6.592;2022-09-06T06:24:14;17.23;;;11.13;;
30127;SDS011;16942;53.196;6.592;2022-09-06T06:26:39;18.50;;;11.63;;
30127;SDS011;16942;53.196;6.592;2022-09-06T06:29:05;15.97;;;11.77;;
30127;SDS011;16942;53.196;6.592;2022-09-06T06:31:33;17.53;;;10.90;;
30127;SDS011;16942;53.196;6.592;2022-09-06T06:34:00;22.07;;;11.07;;
30127;SDS011;16942;53.196;6.592;2022-09-06T06:36:28;16.07;;;11.13;;
30127;SDS011;16942;53.196;6.592;2022-09-06T06:38:56;14.67;;;11.33;;
30127;SDS011;16942;53.196;6.592;2022-09-06T06:41:23;18.33;;;12.43;;
30127;SDS011;16942;53.196;6.592;2022-09-06T06:43:51;15.37;;;12.43;;
30127;SDS011;16942;53.196;6.592;2022-09-06T06:46:21;20.53;;;12.33;;
30127;SDS011;16942;53.196;6.592;2022-09-06T06:48:48;16.70;;;12.80;;
30127;SDS011;16942;53.196;6.592;2022-09-06T06:51:15;18.23;;;12.13;;
30127;SDS011;16942;53.196;6.592;2022-09-06T06:53:42;18.47;;;11.20;;
30127;SDS011;16942;53.196;6.592;2022-09-06T06:58:43;16.33;;;12.80;;
30127;SDS011;16942;53.196;6.592;2022-09-06T07:01:10;21.37;;;13.97;;
30127;SDS011;16942;53.196;6.592;2022-09-06T07:03:37;23.33;;;14.60;;
30127;SDS011;16942;53.196;6.592;2022-09-06T07:06:03;16.57;;;14.37;;
30127;SDS011;16942;53.196;6.592;2022-09-06T07:08:30;24.07;;;14.30;;
30127;SDS011;16942;53.196;6.592;2022-09-06T07:10:56;18.90;;;13.30;;
30127;SDS011;16942;53.196;6.592;2022-09-06T07:13:22;15.70;;;12.57;;
30127;SDS011;16942;53.196;6.592;2022-09-06T07:15:48;15.60;;;12.80;;
30127;SDS011;16942;53.196;6.592;2022-09-06T07:18:14;17.13;;;13.40;;
30127;SDS011;16942;53.196;6.592;2022-09-06T07:20:40;18.97;;;15.20;;
30127;SDS011;16942;53.196;6.592;2022-09-06T07:23:07;17.00;;;13.20;;
30127;SDS011;16942;53.196;6.592;2022-09-06T07:25:33;17.63;;;13.17;;
30127;SDS011;16942;53.196;6.592;2022-09-06T07:28:03;15.27;;;12.90;;
30127;SDS011;16942;53.196;6.592;2022-09-06T07:30:33;22.27;;;14.00;;
30127;SDS011;16942;53.196;6.592;2022-09-06T07:33:01;15.10;;;13.03;;
30127;SDS011;16942;53.196;6.592;2022-09-06T07:35:29;16.37;;;13.23;;
30127;SDS011;16942;53.196;6.592;2022-09-06T07:37:56;16.10;;;13.47;;
30127;SDS011;16942;53.196;6.592;2022-09-06T07:40:24;20.00;;;14.77;;
30127;SDS011;16942;53.196;6.592;2022-09-06T07:42:51;14.77;;;13.27;;
30127;SDS011;16942;53.196;6.592;2022-09-06T07:45:17;15.17;;;13.27;;
30127;SDS011;16942;53.196;6.592;2022-09-06T07:47:43;17.63;;;14.53;;
30127;SDS011;16942;53.196;6.592;2022-09-06T07:50:08;14.37;;;12.87;;
30127;SDS011;16942;53.196;6.592;2022-09-06T07:52:34;16.73;;;13.57;;
30127;SDS011;16942;53.196;6.592;2022-09-06T07:55:00;19.73;;;13.37;;
30127;SDS011;16942;53.196;6.592;2022-09-06T07:57:25;16.90;;;13.30;;
30127;SDS011;16942;53.196;6.592;2022-09-06T07:59:51;18.57;;;14.90;;
30127;SDS011;16942;53.196;6.592;2022-09-06T08:02:17;17.53;;;14.47;;
30127;SDS011;16942;53.196;6.592;2022-09-06T08:04:43;20.40;;;14.03;;
30127;SDS011;16942;53.196;6.592;2022-09-06T08:07:08;18.00;;;14.07;;
30127;SDS011;16942;53.196;6.592;2022-09-06T08:09:34;17.83;;;12.87;;
30127;SDS011;16942;53.196;6.592;2022-09-06T08:12:01;15.63;;;13.70;;
30127;SDS011;16942;53.196;6.592;2022-09-06T08:14:30;20.02;;;12.80;;
30127;SDS011;16942;53.196;6.592;2022-09-06T08:16:57;17.90;;;14.50;;
30127;SDS011;16942;53.196;6.592;2022-09-06T08:19:23;23.47;;;14.57;;
30127;SDS011;16942;53.196;6.592;2022-09-06T08:21:48;16.50;;;13.32;;
30127;SDS011;16942;53.196;6.592;2022-09-06T08:24:14;15.95;;;13.25;;
30127;SDS011;16942;53.196;6.592;2022-09-06T08:26:40;14.83;;;12.57;;
30127;SDS011;16942;53.196;6.592;2022-09-06T08:29:09;16.38;;;12.02;;
30127;SDS011;16942;53.196;6.592;2022-09-06T08:31:37;18.25;;;11.77;;
30127;SDS011;16942;53.196;6.592;2022-09-06T08:34:04;25.58;;;12.38;;
30127;SDS011;16942;53.196;6.592;2022-09-06T08:36:30;15.07;;;11.82;;
30127;SDS011;16942;53.196;6.592;2022-09-06T08:38:57;16.95;;;11.93;;
30127;SDS011;16942;53.196;6.592;2022-09-06T08:44:05;17.85;;;12.48;;
30127;SDS011;16942;53.196;6.592;2022-09-06T08:50:15;16.27;;;13.38;;
30127;SDS011;16942;53.196;6.592;2022-09-06T09:00:26;17.77;;;12.93;;
30127;SDS011;16942;53.196;6.592;2022-09-06T09:02:53;14.02;;;12.18;;
30127;SDS011;16942;53.196;6.592;2022-09-06T09:05:34;17.92;;;13.40;;
30127;SDS011;16942;53.196;6.592;2022-09-06T09:08:12;27.52;;;14.32;;
30127;SDS011;16942;53.196;6.592;2022-09-06T09:10:50;18.48;;;13.07;;
30127;SDS011;16942;53.196;6.592;2022-09-06T09:13:20;16.00;;;12.00;;
30127;SDS011;16942;53.196;6.592;2022-09-06T09:15:58;14.90;;;12.05;;
30127;SDS011;16942;53.196;6.592;2022-09-06T09:18:25;15.27;;;11.35;;
30127;SDS011;16942;53.196;6.592;2022-09-06T09:20:54;16.55;;;12.30;;
30127;SDS011;16942;53.196;6.592;2022-09-06T09:23:20;13.25;;;11.90;;
30127;SDS011;16942;53.196;6.592;2022-09-06T09:25:45;15.48;;;12.82;;
30127;SDS011;16942;53.196;6.592;2022-09-06T09:28:18;14.98;;;12.13;;
30127;SDS011;16942;53.196;6.592;2022-09-06T09:30:48;13.23;;;11.73;;
30127;SDS011;16942;53.196;6.592;2022-09-06T09:33:48;16.77;;;10.70;;
30127;SDS011;16942;53.196;6.592;2022-09-06T09:36:08;14.23;;;11.75;;
30127;SDS011;16942;53.196;6.592;2022-09-06T09:38:41;13.27;;;11.73;;
30127;SDS011;16942;53.196;6.592;2022-09-06T09:41:08;14.68;;;11.05;;
30127;SDS011;16942;53.196;6.592;2022-09-06T09:43:57;12.85;;;10.45;;
30127;SDS011;16942;53.196;6.592;2022-09-06T09:46:30;14.52;;;12.02;;
30127;SDS011;16942;53.196;6.592;2022-09-06T09:52:11;17.05;;;11.52;;
30127;SDS011;16942;53.196;6.592;2022-09-06T09:54:43;17.13;;;10.75;;
30127;SDS011;16942;53.196;6.592;2022-09-06T09:57:10;18.50;;;12.05;;
30127;SDS011;16942;53.196;6.592;2022-09-06T09:59:42;20.48;;;12.35;;
30127;SDS011;16942;53.196;6.592;2022-09-06T10:02:30;14.23;;;12.57;;
30127;SDS011;16942;53.196;6.592;2022-09-06T10:05:01;14.18;;;11.48;;
30127;SDS011;16942;53.196;6.592;2022-09-06T10:07:43;11.75;;;10.52;;
30127;SDS011;16942;53.196;6.592;2022-09-06T10:10:14;16.52;;;11.43;;
30127;SDS011;16942;53.196;6.592;2022-09-06T10:12:45;22.90;;;12.52;;
30127;SDS011;16942;53.196;6.592;2022-09-06T10:15:30;11.82;;;10.35;;
30127;SDS011;16942;53.196;6.592;2022-09-06T10:17:57;13.27;;;11.88;;
30127;SDS011;16942;53.196;6.592;2022-09-06T10:20:31;16.30;;;13.10;;
30127;SDS011;16942;53.196;6.592;2022-09-06T10:23:18;15.20;;;11.02;;
30127;SDS011;16942;53.196;6.592;2022-09-06T10:28:33;15.38;;;10.32;;
30127;SDS011;16942;53.196;6.592;2022-09-06T10:45:32;14.38;;;11.65;;
30127;SDS011;16942;53.196;6.592;2022-09-06T10:56:28;11.98;;;10.70;;
30127;SDS011;16942;53.196;6.592;2022-09-06T10:59:06;11.77;;;10.27;;
30127;SDS011;16942;53.196;6.592;2022-09-06T11:04:45;15.25;;;10.85;;
30127;SDS011;16942;53.196;6.592;2022-09-06T11:07:28;11.00;;;9.48;;
30127;SDS011;16942;53.196;6.592;2022-09-06T11:10:07;9.15;;;8.32;;
30127;SDS011;16942;53.196;6.592;2022-09-06T11:12:47;10.80;;;9.57;;
30127;SDS011;16942;53.196;6.592;2022-09-06T11:15:18;14.93;;;11.98;;
30127;SDS011;16942;53.196;6.592;2022-09-06T11:17:47;13.85;;;9.23;;
30127;SDS011;16942;53.196;6.592;2022-09-06T11:20:52;15.70;;;8.98;;
30127;SDS011;16942;53.196;6.592;2022-09-06T11:28:47;9.82;;;8.82;;
30127;SDS011;16942;53.196;6.592;2022-09-06T11:31:22;7.72;;;7.13;;
30127;SDS011;16942;53.196;6.592;2022-09-06T11:34:04;8.45;;;7.55;;
30127;SDS011;16942;53.196;6.592;2022-09-06T11:36:36;11.15;;;7.88;;
30127;SDS011;16942;53.196;6.592;2022-09-06T11:39:10;7.97;;;7.22;;
30127;SDS011;16942;53.196;6.592;2022-09-06T11:41:37;9.25;;;7.70;;
30127;SDS011;16942;53.196;6.592;2022-09-06T11:44:05;9.07;;;8.02;;
30127;SDS011;16942;53.196;6.592;2022-09-06T11:51:40;11.35;;;8.52;;
30127;SDS011;16942;53.196;6.592;2022-09-06T12:07:29;7.22;;;6.47;;
30127;SDS011;16942;53.196;6.592;2022-09-06T12:09:56;10.88;;;6.93;;
30127;SDS011;16942;53.196;6.592;2022-09-06T12:21:32;10.20;;;6.75;;
30127;SDS011;16942;53.196;6.592;2022-09-06T12:24:01;9.90;;;7.25;;
30127;SDS011;16942;53.196;6.592;2022-09-06T12:29:16;7.63;;;6.90;;
30127;SDS011;16942;53.196;6.592;2022-09-06T12:31:52;10.07;;;8.10;;
30127;SDS011;16942;53.196;6.592;2022-09-06T12:39:24;7.55;;;6.95;;
30127;SDS011;16942;53.196;6.592;2022-09-06T12:41:51;7.22;;;6.53;;
30127;SDS011;16942;53.196;6.592;2022-09-06T12:44:28;7.13;;;6.60;;
30127;SDS011;16942;53.196;6.592;2022-09-06T12:47:10;7.60;;;6.38;;
30127;SDS011;16942;53.196;6.592;2022-09-06T12:49:38;7.20;;;6.60;;
30127;SDS011;16942;53.196;6.592;2022-09-06T12:52:08;10.45;;;7.63;;
30127;SDS011;16942;53.196;6.592;2022-09-06T12:54:54;7.57;;;6.40;;
30127;SDS011;16942;53.196;6.592;2022-09-06T12:57:21;7.82;;;7.13;;
30127;SDS011;16942;53.196;6.592;2022-09-06T13:02:16;7.35;;;6.65;;
30127;SDS011;16942;53.196;6.592;2022-09-06T13:04:58;10.65;;;6.45;;
30127;SDS011;16942;53.196;6.592;2022-09-06T13:07:29;11.75;;;7.15;;
30127;SDS011;16942;53.196;6.592;2022-09-06T13:09:59;8.10;;;6.57;;
30127;SDS011;16942;53.196;6.592;2022-09-06T13:14:54;13.65;;;6.97;;
30127;SDS011;16942;53.196;6.592;2022-09-06T13:17:25;9.50;;;6.90;;
30127;SDS011;16942;53.196;6.592;2022-09-06T13:19:53;10.10;;;7.50;;
30127;SDS011;16942;53.196;6.592;2022-09-06T13:25:22;8.65;;;7.05;;
30127;SDS011;16942;53.196;6.592;2022-09-06T13:27:50;8.18;;;7.43;;
30127;SDS011;16942;53.196;6.592;2022-09-06T13:30:35;14.55;;;7.25;;
30127;SDS011;16942;53.196;6.592;2022-09-06T13:33:24;7.65;;;6.40;;
30127;SDS011;16942;53.196;6.592;2022-09-06T13:36:03;10.02;;;6.20;;
30127;SDS011;16942;53.196;6.592;2022-09-06T13:41:02;6.22;;;5.15;;
30127;SDS011;16942;53.196;6.592;2022-09-06T13:43:28;6.28;;;4.93;;
30127;SDS011;16942;53.196;6.592;2022-09-06T13:46:07;9.32;;;5.78;;
30127;SDS011;16942;53.196;6.592;2022-09-06T13:48:34;9.75;;;5.20;;
30127;SDS011;16942;53.196;6.592;2022-09-06T13:51:04;12.57;;;5.13;;
30127;SDS011;16942;53.196;6.592;2022-09-06T13:53:32;5.95;;;5.40;;
30127;SDS011;16942;53.196;6.592;2022-09-06T13:55:58;5.78;;;5.25;;
30127;SDS011;16942;53.196;6.592;2022-09-06T13:58:24;12.90;;;5.50;;
30127;SDS011;16942;53.196;6.592;2022-09-06T14:00:50;5.47;;;5.03;;
30127;SDS011;16942;53.196;6.592;2022-09-06T14:03:21;5.97;;;5.45;;
30127;SDS011;16942;53.196;6.592;2022-09-06T14:05:50;6.70;;;4.85;;
30127;SDS011;16942;53.196;6.592;2022-09-06T14:08:16;5.25;;;4.72;;
30127;SDS011;16942;53.196;6.592;2022-09-06T14:10:42;7.32;;;4.57;;
30127;SDS011;16942;53.196;6.592;2022-09-06T14:13:10;4.80;;;4.40;;
30127;SDS011;16942;53.196;6.592;2022-09-06T14:15:35;4.35;;;3.95;;
30127;SDS011;16942;53.196;6.592;2022-09-06T14:18:02;3.92;;;3.63;;
30127;SDS011;16942;53.196;6.592;2022-09-06T14:20:27;13.65;;;4.40;;
30127;SDS011;16942;53.196;6.592;2022-09-06T14:22:53;5.72;;;4.55;;
30127;SDS011;16942;53.196;6.592;2022-09-06T14:25:18;12.77;;;5.32;;
30127;SDS011;16942;53.196;6.592;2022-09-06T14:27:44;5.43;;;4.20;;
30127;SDS011;16942;53.196;6.592;2022-09-06T14:30:12;3.90;;;3.58;;
30127;SDS011;16942;53.196;6.592;2022-09-06T14:32:38;4.25;;;3.95;;
30127;SDS011;16942;53.196;6.592;2022-09-06T14:35:04;4.07;;;3.78;;
30127;SDS011;16942;53.196;6.592;2022-09-06T14:37:30;4.22;;;3.92;;
30127;SDS011;16942;53.196;6.592;2022-09-06T14:39:56;6.70;;;4.35;;
30127;SDS011;16942;53.196;6.592;2022-09-06T14:42:22;4.82;;;3.85;;
30127;SDS011;16942;53.196;6.592;2022-09-06T14:44:49;6.43;;;3.80;;
30127;SDS011;16942;53.196;6.592;2022-09-06T14:47:15;8.48;;;4.13;;
30127;SDS011;16942;53.196;6.592;2022-09-06T14:49:41;5.88;;;4.15;;
30127;SDS011;16942;53.196;6.592;2022-09-06T14:52:06;5.03;;;4.15;;
30127;SDS011;16942;53.196;6.592;2022-09-06T14:54:32;8.93;;;4.00;;
30127;SDS011;16942;53.196;6.592;2022-09-06T14:56:58;4.35;;;3.97;;
30127;SDS011;16942;53.196;6.592;2022-09-06T14:59:24;4.10;;;3.70;;
30127;SDS011;16942;53.196;6.592;2022-09-06T15:01:50;4.50;;;4.10;;
30127;SDS011;16942;53.196;6.592;2022-09-06T15:04:16;4.82;;;4.13;;
30127;SDS011;16942;53.196;6.592;2022-09-06T15:06:42;4.82;;;4.10;;
30127;SDS011;16942;53.196;6.592;2022-09-06T15:09:11;4.00;;;3.40;;
30127;SDS011;16942;53.196;6.592;2022-09-06T15:11:39;4.72;;;4.20;;
30127;SDS011;16942;53.196;6.592;2022-09-06T15:14:07;4.60;;;4.13;;
30127;SDS011;16942;53.196;6.592;2022-09-06T15:16:40;6.53;;;5.85;;
30127;SDS011;16942;53.196;6.592;2022-09-06T15:19:06;9.07;;;5.10;;
30127;SDS011;16942;53.196;6.592;2022-09-06T15:21:32;6.60;;;4.85;;
30127;SDS011;16942;53.196;6.592;2022-09-06T15:23:58;7.03;;;3.90;;
30127;SDS011;16942;53.196;6.592;2022-09-06T15:26:25;4.72;;;4.32;;
30127;SDS011;16942;53.196;6.592;2022-09-06T15:28:51;13.68;;;4.50;;
30127;SDS011;16942;53.196;6.592;2022-09-06T15:31:17;5.93;;;4.32;;
30127;SDS011;16942;53.196;6.592;2022-09-06T15:33:43;5.38;;;4.28;;
30127;SDS011;16942;53.196;6.592;2022-09-06T15:36:09;4.18;;;3.75;;
30127;SDS011;16942;53.196;6.592;2022-09-06T15:38:40;3.38;;;3.08;;
30127;SDS011;16942;53.196;6.592;2022-09-06T15:41:12;3.72;;;3.42;;
30127;SDS011;16942;53.196;6.592;2022-09-06T15:43:49;3.55;;;3.13;;
30127;SDS011;16942;53.196;6.592;2022-09-06T15:46:37;6.45;;;3.60;;
30127;SDS011;16942;53.196;6.592;2022-09-06T15:49:05;4.57;;;3.80;;
30127;SDS011;16942;53.196;6.592;2022-09-06T15:51:32;3.97;;;3.28;;
30127;SDS011;16942;53.196;6.592;2022-09-06T15:53:59;6.85;;;3.78;;
30127;SDS011;16942;53.196;6.592;2022-09-06T15:56:25;7.57;;;4.32;;
30127;SDS011;16942;53.196;6.592;2022-09-06T15:58:51;4.88;;;4.30;;
30127;SDS011;16942;53.196;6.592;2022-09-06T16:01:18;3.95;;;3.65;;
30127;SDS011;16942;53.196;6.592;2022-09-06T16:03:45;4.68;;;4.25;;
30127;SDS011;16942;53.196;6.592;2022-09-06T16:06:14;5.28;;;4.32;;
30127;SDS011;16942;53.196;6.592;2022-09-06T16:08:42;6.13;;;4.40;;
30127;SDS011;16942;53.196;6.592;2022-09-06T16:11:10;5.35;;;4.78;;
30127;SDS011;16942;53.196;6.592;2022-09-06T16:13:38;13.85;;;6.68;;
30127;SDS011;16942;53.196;6.592;2022-09-06T16:16:05;6.05;;;5.55;;
30127;SDS011;16942;53.196;6.592;2022-09-06T16:18:32;8.50;;;6.13;;
30127;SDS011;16942;53.196;6.592;2022-09-06T16:21:06;10.57;;;6.53;;
30127;SDS011;16942;53.196;6.592;2022-09-06T16:23:34;7.13;;;6.28;;
30127;SDS011;16942;53.196;6.592;2022-09-06T16:26:00;10.85;;;6.18;;
30127;SDS011;16942;53.196;6.592;2022-09-06T16:28:28;8.45;;;6.07;;
30127;SDS011;16942;53.196;6.592;2022-09-06T16:30:55;7.18;;;6.47;;
30127;SDS011;16942;53.196;6.592;2022-09-06T16:33:26;7.63;;;5.72;;
30127;SDS011;16942;53.196;6.592;2022-09-06T16:35:51;6.55;;;5.90;;
30127;SDS011;16942;53.196;6.592;2022-09-06T16:38:17;6.30;;;5.80;;
30127;SDS011;16942;53.196;6.592;2022-09-06T16:40:43;6.55;;;5.93;;
30127;SDS011;16942;53.196;6.592;2022-09-06T16:43:09;11.38;;;6.30;;
30127;SDS011;16942;53.196;6.592;2022-09-06T16:45:36;7.82;;;6.00;;
30127;SDS011;16942;53.196;6.592;2022-09-06T16:48:03;11.10;;;6.85;;
30127;SDS011;16942;53.196;6.592;2022-09-06T16:50:30;8.93;;;6.78;;
30127;SDS011;16942;53.196;6.592;2022-09-06T16:52:57;9.45;;;7.00;;
30127;SDS011;16942;53.196;6.592;2022-09-06T16:55:23;6.45;;;5.85;;
30127;SDS011;16942;53.196;6.592;2022-09-06T16:57:48;10.18;;;7.00;;
30127;SDS011;16942;53.196;6.592;2022-09-06T17:00:14;6.75;;;5.82;;
30127;SDS011;16942;53.196;6.592;2022-09-06T17:02:43;9.80;;;6.25;;